Time;durP1;ratioP1;P1;durP2;ratioP2;P2;SDS_P1;SDS_P2;PMS_P1;PMS_P2;Temp;Humidity;BMP_temperature;BMP_pressure;BME280_temperature;BME280_humidity;BME280_pressure;Samples;Min_cycle;Max_cycle;Signal;HPM_P1;HPM_P2
2022/07/08 00:00:44;;;;;;;11.32;2.00;;;14.90;74.70;;;;;;4962235;28;20592;-80
2022/07/08 00:03:10;;;;;;;4.28;1.55;;;14.90;74.70;;;;;;4978089;28;20077;-82
2022/07/08 00:05:36;;;;;;;5.90;1.50;;;14.90;75.00;;;;;;4978402;28;20038;-81
2022/07/08 00:08:02;;;;;;;9.90;1.85;;;14.80;75.00;;;;;;4978053;28;20100;-79
2022/07/08 00:10:27;;;;;;;6.07;1.73;;;14.80;75.30;;;;;;4946032;28;20483;-79
2022/07/08 00:12:53;;;;;;;7.28;1.73;;;14.80;75.40;;;;;;4961678;28;20513;-81
2022/07/08 00:15:21;;;;;;;13.73;2.10;;;14.80;75.50;;;;;;4977755;28;20046;-80
2022/07/08 00:17:47;;;;;;;10.10;1.95;;;14.80;75.70;;;;;;4977581;28;20499;-83
2022/07/08 00:20:12;;;;;;;6.00;1.45;;;14.80;76.00;;;;;;4977940;28;20128;-82
2022/07/08 00:22:38;;;;;;;5.88;1.75;;;14.80;76.10;;;;;;4977571;28;20498;-80
2022/07/08 00:25:04;;;;;;;11.63;2.28;;;14.80;76.20;;;;;;4945538;28;20064;-82
2022/07/08 00:27:30;;;;;;;10.27;2.13;;;14.80;76.20;;;;;;4977591;28;20487;-82
2022/07/08 00:29:56;;;;;;;9.82;2.20;;;14.80;76.60;;;;;;4961466;28;20039;-79
2022/07/08 00:32:22;;;;;;;6.88;1.75;;;14.80;76.60;;;;;;4945787;28;20097;-81
2022/07/08 00:34:47;;;;;;;8.15;1.67;;;14.80;76.60;;;;;;4961380;28;20038;-82
2022/07/08 00:37:13;;;;;;;7.68;1.40;;;14.80;76.80;;;;;;4977271;28;20054;-80
2022/07/08 00:39:39;;;;;;;8.43;2.10;;;14.70;77.10;;;;;;4977281;28;20046;-81
2022/07/08 00:42:05;;;;;;;5.63;2.08;;;14.80;77.20;;;;;;4977030;28;20053;-77
2022/07/08 00:44:32;;;;;;;8.60;1.73;;;14.70;77.20;;;;;;4945470;28;20099;-77
2022/07/08 00:46:58;;;;;;;13.20;2.00;;;14.70;77.40;;;;;;4961133;28;20034;-81
2022/07/08 00:49:23;;;;;;;7.40;1.70;;;14.70;77.60;;;;;;4944982;28;20088;-80
2022/07/08 00:51:49;;;;;;;10.55;2.00;;;14.60;77.50;;;;;;4977207;28;20141;-77
2022/07/08 00:54:19;;;;;;;8.75;1.63;;;14.50;77.70;;;;;;4944894;28;20042;-78
2022/07/08 00:56:45;;;;;;;9.55;1.80;;;14.50;78.10;;;;;;4977041;28;20484;-77
2022/07/08 00:59:11;;;;;;;9.07;1.75;;;14.40;78.10;;;;;;4976618;28;20133;-79
2022/07/08 01:01:36;;;;;;;5.15;1.90;;;14.30;78.40;;;;;;4976770;28;20042;-81
2022/07/08 01:04:03;;;;;;;7.57;1.63;;;14.10;78.60;;;;;;4960528;28;20042;-79
2022/07/08 01:06:28;;;;;;;6.72;1.75;;;14.10;78.90;;;;;;4976872;28;20048;-77
2022/07/08 01:08:55;;;;;;;8.10;1.63;;;14.10;78.90;;;;;;4976903;28;20125;-79
2022/07/08 01:11:20;;;;;;;9.70;2.30;;;14.00;79.10;;;;;;4945058;28;20074;-79
2022/07/08 01:13:47;;;;;;;7.63;1.85;;;14.00;79.20;;;;;;4944542;28;20043;-78
2022/07/08 01:16:13;;;;;;;6.88;1.77;;;14.00;79.40;;;;;;4960732;28;20049;-80
2022/07/08 01:18:40;;;;;;;9.10;2.08;;;13.90;79.50;;;;;;4956512;28;20105;-78
2022/07/08 01:21:06;;;;;;;8.20;2.13;;;13.90;79.80;;;;;;4938417;29;20043;-78
2022/07/08 01:23:32;;;;;;;9.27;2.10;;;13.90;79.50;;;;;;4938490;29;20110;-79
2022/07/08 01:25:58;;;;;;;12.38;3.22;;;13.80;79.80;;;;;;4938706;29;20090;-81
2022/07/08 01:28:24;;;;;;;10.55;2.15;;;13.80;79.60;;;;;;4938141;29;20575;-79
2022/07/08 01:30:50;;;;;;;7.18;2.30;;;13.70;79.80;;;;;;4954435;29;20086;-81
2022/07/08 01:33:16;;;;;;;9.02;2.03;;;13.70;79.90;;;;;;4938411;29;20051;-78
2022/07/08 01:35:42;;;;;;;8.70;2.45;;;13.60;80.00;;;;;;4954414;29;20110;-78
2022/07/08 01:38:08;;;;;;;7.40;2.30;;;13.60;80.30;;;;;;4938301;28;20035;-80
2022/07/08 01:40:34;;;;;;;10.18;2.47;;;13.50;80.30;;;;;;4938338;29;20050;-78
2022/07/08 01:42:59;;;;;;;8.55;2.58;;;13.50;80.40;;;;;;4953953;29;20563;-80
2022/07/08 01:45:25;;;;;;;9.48;3.33;;;13.50;80.50;;;;;;4938336;29;20056;-79
2022/07/08 01:47:51;;;;;;;6.18;2.03;;;13.50;80.60;;;;;;4938457;28;20047;-78
2022/07/08 01:50:17;;;;;;;7.72;1.80;;;13.40;80.80;;;;;;4922448;29;20484;-77
2022/07/08 01:52:42;;;;;;;9.88;2.25;;;13.40;80.90;;;;;;4953762;29;20392;-79
2022/07/08 01:55:08;;;;;;;10.43;2.55;;;13.40;81.00;;;;;;4922213;29;20042;-80
2022/07/08 01:57:34;;;;;;;13.98;2.53;;;13.30;81.30;;;;;;4954158;29;20043;-81
2022/07/08 02:00:00;;;;;;;12.95;2.75;;;13.30;81.40;;;;;;4954195;28;20086;-79
2022/07/08 02:02:26;;;;;;;8.73;2.38;;;13.20;81.40;;;;;;4921907;29;20039;-78
2022/07/08 02:04:52;;;;;;;8.93;2.53;;;13.20;81.50;;;;;;4954161;29;20063;-78
2022/07/08 02:07:18;;;;;;;12.63;2.10;;;13.10;81.60;;;;;;4938380;29;20047;-79
2022/07/08 02:09:43;;;;;;;6.75;2.00;;;13.10;81.60;;;;;;4937954;29;20046;-80
2022/07/08 02:12:19;;;;;;;7.78;2.15;;;13.00;82.00;;;;;;4937668;29;20043;-79
2022/07/08 02:15:04;;;;;;;11.85;2.47;;;13.00;82.30;;;;;;4938145;29;20042;-78
2022/07/08 02:17:32;;;;;;;6.90;2.13;;;12.90;82.50;;;;;;4954523;28;20501;-78
2022/07/08 02:19:59;;;;;;;10.15;2.78;;;12.90;82.50;;;;;;4938790;29;20043;-80
2022/07/08 02:22:25;;;;;;;12.10;2.80;;;12.90;82.50;;;;;;4938048;29;20087;-80
2022/07/08 02:24:51;;;;;;;8.65;2.78;;;12.90;82.50;;;;;;4939243;29;20122;-79
2022/07/08 02:27:17;;;;;;;10.32;2.53;;;12.80;82.70;;;;;;4941031;29;20051;-80
2022/07/08 02:29:43;;;;;;;9.57;2.30;;;12.90;82.70;;;;;;4940790;29;20135;-81
2022/07/08 02:32:10;;;;;;;7.28;2.85;;;12.80;82.80;;;;;;4956919;29;20047;-78
2022/07/08 02:34:35;;;;;;;9.25;2.88;;;12.80;82.90;;;;;;4940864;29;20043;-81
2022/07/08 02:37:01;;;;;;;9.70;3.08;;;12.80;83.10;;;;;;4956791;29;20468;-81
2022/07/08 02:39:27;;;;;;;10.38;2.35;;;12.80;83.10;;;;;;4940928;29;20039;-81
2022/07/08 02:41:53;;;;;;;10.48;2.67;;;12.80;83.20;;;;;;4940825;29;20051;-78
2022/07/08 02:44:18;;;;;;;6.28;2.67;;;12.80;83.30;;;;;;4941235;29;20082;-78
2022/07/08 02:46:45;;;;;;;8.50;2.55;;;12.70;83.40;;;;;;4957296;29;20035;-79
2022/07/08 02:49:11;;;;;;;6.75;2.42;;;12.70;83.50;;;;;;4957269;28;20085;-80
2022/07/08 02:51:37;;;;;;;9.75;2.47;;;12.60;83.60;;;;;;4956743;29;20035;-80
2022/07/08 02:54:04;;;;;;;10.80;3.28;;;12.60;83.80;;;;;;4957114;29;20129;-82
2022/07/08 02:56:30;;;;;;;6.88;2.65;;;12.50;83.80;;;;;;4958959;29;20130;-78
2022/07/08 02:58:56;;;;;;;7.80;3.22;;;12.50;83.80;;;;;;4963502;28;20046;-79
2022/07/08 03:01:22;;;;;;;10.80;3.10;;;12.50;84.00;;;;;;4929217;29;20050;-80
2022/07/08 03:03:48;;;;;;;6.25;2.13;;;12.50;84.10;;;;;;4957089;29;20036;-82
2022/07/08 03:06:14;;;;;;;9.10;3.30;;;12.50;84.20;;;;;;4940834;29;20436;-81
2022/07/08 03:08:39;;;;;;;11.52;3.13;;;12.50;84.20;;;;;;4940531;29;20462;-79
2022/07/08 03:11:06;;;;;;;9.07;3.08;;;12.50;84.30;;;;;;4924669;29;20035;-79
2022/07/08 03:13:32;;;;;;;10.57;2.95;;;12.50;84.40;;;;;;4956640;29;20081;-79
2022/07/08 03:15:58;;;;;;;11.93;3.28;;;12.40;84.50;;;;;;4940560;29;20046;-80
2022/07/08 03:18:24;;;;;;;12.52;3.30;;;12.40;84.70;;;;;;4940247;29;20066;-80
2022/07/08 03:20:50;;;;;;;12.40;3.42;;;12.40;84.80;;;;;;4940192;29;20419;-80
2022/07/08 03:23:15;;;;;;;12.00;3.60;;;12.30;84.80;;;;;;4956027;29;20089;-80
2022/07/08 03:25:41;;;;;;;8.48;3.10;;;12.40;84.80;;;;;;4956148;29;20039;-79
2022/07/08 03:28:07;;;;;;;8.10;3.33;;;12.40;85.10;;;;;;4924864;28;20134;-81
2022/07/08 03:30:33;;;;;;;9.77;3.17;;;12.40;85.10;;;;;;4956275;29;20456;-79
2022/07/08 03:32:59;;;;;;;10.32;3.50;;;12.40;85.00;;;;;;4956742;29;20058;-81
2022/07/08 03:35:24;;;;;;;10.38;2.90;;;12.50;85.20;;;;;;4956254;28;20392;-80
2022/07/08 03:37:50;;;;;;;10.65;3.22;;;12.50;85.30;;;;;;4955808;28;20077;-81
2022/07/08 03:43:00;;;;;;;13.23;2.95;;;12.70;85.50;;;;;;4955902;29;20054;-78
2022/07/08 03:45:26;;;;;;;11.05;2.63;;;12.70;85.40;;;;;;4956109;29;20043;-80
2022/07/08 03:47:52;;;;;;;9.63;2.97;;;12.80;85.80;;;;;;4940242;28;20055;-79
2022/07/08 03:50:19;;;;;;;12.20;3.03;;;12.90;85.50;;;;;;4939991;29;20074;-80
2022/07/08 03:52:46;;;;;;;9.55;2.95;;;12.90;85.60;;;;;;4956048;29;20047;-81
2022/07/08 03:55:12;;;;;;;9.25;3.35;;;13.00;85.50;;;;;;4956096;29;20468;-79
2022/07/08 03:57:38;;;;;;;10.20;3.17;;;13.00;85.70;;;;;;4955891;29;20480;-80
2022/07/08 04:00:06;;;;;;;9.32;2.65;;;13.00;85.70;;;;;;4955538;28;20045;-79
2022/07/08 04:02:32;;;;;;;14.57;3.08;;;13.10;85.70;;;;;;4955427;29;20082;-78
2022/07/08 04:04:58;;;;;;;7.75;3.28;;;13.10;85.90;;;;;;4955097;29;20051;-79
2022/07/08 04:07:24;;;;;;;9.77;3.22;;;13.10;85.80;;;;;;4955008;29;20035;-81
2022/07/08 04:09:49;;;;;;;11.38;2.92;;;13.10;86.30;;;;;;4939112;29;20096;-79
2022/07/08 04:12:15;;;;;;;12.77;3.28;;;13.00;86.80;;;;;;4955573;29;20090;-80
2022/07/08 04:14:41;;;;;;;7.85;2.85;;;13.10;86.30;;;;;;4939667;29;20138;-81
2022/07/08 04:17:06;;;;;;;12.63;3.50;;;13.10;86.30;;;;;;4955253;28;20095;-78
2022/07/08 04:19:32;;;;;;;10.18;2.92;;;13.10;86.30;;;;;;4939251;29;20047;-80
2022/07/08 04:22:01;;;;;;;8.52;3.70;;;13.10;86.40;;;;;;4955399;29;20043;-79
2022/07/08 04:24:27;;;;;;;14.77;3.83;;;13.20;86.40;;;;;;4954961;29;20542;-79
2022/07/08 04:26:53;;;;;;;10.88;3.70;;;13.20;86.60;;;;;;4938840;29;20043;-79
2022/07/08 04:29:18;;;;;;;10.70;3.10;;;13.30;86.70;;;;;;4954920;28;20043;-79
2022/07/08 04:31:44;;;;;;;8.85;3.22;;;13.30;86.80;;;;;;4938946;29;20399;-78
2022/07/08 04:34:09;;;;;;;8.13;3.47;;;13.30;88.30;;;;;;4922943;29;20388;-79
2022/07/08 04:36:35;;;;;;;11.98;2.88;;;13.30;88.30;;;;;;4922891;29;20050;-78
2022/07/08 04:39:01;;;;;;;10.73;3.55;;;13.40;87.40;;;;;;4954555;28;20046;-79
2022/07/08 04:41:26;;;;;;;11.98;3.30;;;13.40;88.10;;;;;;4954820;29;20130;-81
2022/07/08 04:43:52;;;;;;;10.02;3.60;;;13.50;87.50;;;;;;4954409;29;20055;-81
2022/07/08 04:46:18;;;;;;;13.90;3.50;;;13.50;87.50;;;;;;4954903;29;20039;-81
2022/07/08 04:48:43;;;;;;;8.43;2.85;;;13.60;87.50;;;;;;4938607;29;20050;-78
2022/07/08 04:51:09;;;;;;;6.63;2.60;;;13.70;87.60;;;;;;4954875;29;20045;-82
2022/07/08 04:53:35;;;;;;;10.23;2.75;;;13.80;87.60;;;;;;4954541;29;20074;-78
2022/07/08 04:56:00;;;;;;;11.07;3.03;;;13.80;88.00;;;;;;4938824;29;20043;-80
2022/07/08 04:58:26;;;;;;;7.35;2.85;;;13.90;88.10;;;;;;4954322;28;20070;-78
2022/07/08 05:00:52;;;;;;;7.32;3.20;;;14.00;88.00;;;;;;4954641;29;20039;-82
2022/07/08 05:03:17;;;;;;;7.95;2.65;;;14.00;87.90;;;;;;4954493;29;20101;-81
2022/07/08 05:05:43;;;;;;;11.38;2.67;;;14.10;87.80;;;;;;4938656;29;20039;-81
2022/07/08 05:08:09;;;;;;;9.50;3.13;;;14.20;88.00;;;;;;4955045;28;20043;-79
2022/07/08 05:10:34;;;;;;;7.50;2.92;;;14.30;87.90;;;;;;4922878;29;20035;-80
2022/07/08 05:13:02;;;;;;;7.57;2.30;;;14.40;87.80;;;;;;4939151;29;20047;-79
2022/07/08 05:15:28;;;;;;;10.50;3.17;;;14.50;88.00;;;;;;4954477;29;20047;-78
2022/07/08 05:17:54;;;;;;;11.32;2.75;;;14.60;87.90;;;;;;4954178;28;20063;-78
2022/07/08 05:20:20;;;;;;;13.02;2.38;;;14.70;88.00;;;;;;4954602;29;20039;-82
2022/07/08 05:22:46;;;;;;;10.48;3.50;;;14.80;88.00;;;;;;4954337;29;20098;-80
2022/07/08 05:25:13;;;;;;;12.95;2.78;;;14.90;87.80;;;;;;4938147;29;20035;-79
2022/07/08 05:27:40;;;;;;;13.95;2.80;;;15.00;87.90;;;;;;4954346;29;20215;-81
2022/07/08 05:30:08;;;;;;;9.00;2.60;;;15.10;87.80;;;;;;4954173;28;20086;-79
2022/07/08 05:32:34;;;;;;;7.38;2.40;;;15.10;87.70;;;;;;4938380;29;20046;-81
2022/07/08 05:35:01;;;;;;;9.98;2.20;;;15.30;87.60;;;;;;4954432;29;20035;-78
2022/07/08 05:37:26;;;;;;;12.05;2.90;;;15.40;87.50;;;;;;4938443;29;20051;-80
2022/07/08 05:39:52;;;;;;;6.95;2.17;;;15.50;86.90;;;;;;4954230;28;20522;-81
2022/07/08 05:42:18;;;;;;;6.63;2.25;;;15.60;86.40;;;;;;4938320;29;20078;-79
2022/07/08 05:44:43;;;;;;;10.10;2.80;;;15.70;86.60;;;;;;4954350;29;20531;-78
2022/07/08 05:47:09;;;;;;;5.45;2.08;;;15.80;86.10;;;;;;4954116;29;20070;-78
2022/07/08 05:49:36;;;;;;;8.98;2.70;;;15.90;86.10;;;;;;4938370;29;20130;-78
2022/07/08 05:52:03;;;;;;;11.73;2.30;;;16.00;85.70;;;;;;4938432;29;20047;-76
2022/07/08 05:54:28;;;;;;;9.95;2.25;;;16.00;85.50;;;;;;4954034;29;20130;-79
2022/07/08 05:56:54;;;;;;;9.07;2.22;;;16.10;85.40;;;;;;4922733;29;20126;-81
2022/07/08 05:59:20;;;;;;;9.27;3.05;;;16.10;85.10;;;;;;4938844;29;20054;-80
2022/07/08 06:01:46;;;;;;;6.30;2.60;;;16.10;84.50;;;;;;4941769;29;20039;-82
2022/07/08 06:04:11;;;;;;;13.88;3.50;;;16.20;84.20;;;;;;4941872;29;20039;-82
2022/07/08 06:06:37;;;;;;;9.00;2.45;;;16.20;84.40;;;;;;4941877;29;20039;-81
2022/07/08 06:09:03;;;;;;;12.05;2.65;;;16.20;84.50;;;;;;4957729;28;20050;-82
2022/07/08 06:11:29;;;;;;;16.70;4.47;;;16.40;84.10;;;;;;4957528;29;20070;-82
2022/07/08 06:13:55;;;;;;;7.55;2.40;;;16.40;84.30;;;;;;4941493;29;20043;-80
2022/07/08 06:16:21;;;;;;;7.88;2.03;;;16.50;83.80;;;;;;4925649;29;20035;-82
2022/07/08 06:18:46;;;;;;;9.73;3.00;;;16.50;83.60;;;;;;4958799;28;20054;-81
2022/07/08 06:21:12;;;;;;;11.57;3.20;;;16.60;83.40;;;;;;4960662;28;20454;-80
2022/07/08 06:23:38;;;;;;;15.98;2.88;;;16.60;83.20;;;;;;4960487;28;20039;-82
2022/07/08 06:26:04;;;;;;;7.53;2.47;;;16.70;83.30;;;;;;4976495;28;20050;-77
2022/07/08 06:28:30;;;;;;;6.18;2.25;;;16.80;83.10;;;;;;4976465;28;20039;-81
2022/07/08 06:30:56;;;;;;;10.68;3.22;;;16.90;83.20;;;;;;4976737;28;20070;-80
2022/07/08 06:33:21;;;;;;;8.88;3.08;;;16.90;83.20;;;;;;4960675;28;20454;-80
2022/07/08 06:35:47;;;;;;;8.45;2.75;;;17.00;82.70;;;;;;4960374;28;20042;-80
2022/07/08 06:38:13;;;;;;;9.90;2.58;;;17.00;82.70;;;;;;4976715;28;20046;-81
2022/07/08 06:40:39;;;;;;;11.73;2.17;;;17.00;82.60;;;;;;4960269;28;20388;-81
2022/07/08 06:43:04;;;;;;;14.68;3.10;;;17.00;82.60;;;;;;4944137;28;20049;-81
2022/07/08 06:45:32;;;;;;;10.70;3.88;;;17.10;82.50;;;;;;4960236;28;20042;-81
2022/07/08 06:48:01;;;;;;;11.52;2.17;;;17.20;82.10;;;;;;4944634;28;20098;-81
2022/07/08 06:50:27;;;;;;;10.65;2.78;;;17.30;82.00;;;;;;4960398;28;20405;-81
2022/07/08 06:52:53;;;;;;;9.07;2.83;;;17.40;81.90;;;;;;4944370;28;20372;-81
2022/07/08 06:55:19;;;;;;;11.73;2.83;;;17.50;81.50;;;;;;4944071;28;20157;-83
2022/07/08 06:57:45;;;;;;;8.70;2.65;;;17.50;80.70;;;;;;4960278;28;20133;-83
2022/07/08 07:00:12;;;;;;;9.63;2.42;;;17.50;80.40;;;;;;4959882;28;20054;-82
2022/07/08 07:02:37;;;;;;;10.90;4.30;;;17.50;80.50;;;;;;4959823;28;20050;-81
2022/07/08 07:05:04;;;;;;;10.20;2.60;;;17.50;80.60;;;;;;4975916;28;20046;-81
2022/07/08 07:07:29;;;;;;;9.05;2.28;;;17.50;81.10;;;;;;4943867;28;20089;-80
2022/07/08 07:09:56;;;;;;;13.45;2.65;;;17.60;81.30;;;;;;4943676;28;20042;-83
2022/07/08 07:12:22;;;;;;;12.40;2.78;;;17.60;81.20;;;;;;4958826;28;20499;-81
2022/07/08 07:14:47;;;;;;;11.95;3.08;;;17.70;80.80;;;;;;4943784;28;20078;-82
2022/07/08 07:17:19;;;;;;;12.05;2.67;;;17.70;80.40;;;;;;4975753;28;20062;-81
2022/07/08 07:19:46;;;;;;;7.97;2.33;;;17.80;80.40;;;;;;4959802;28;20046;-82
2022/07/08 07:22:12;;;;;;;7.80;2.50;;;17.80;80.70;;;;;;4959410;28;20049;-83
2022/07/08 07:24:38;;;;;;;8.23;2.78;;;17.80;80.00;;;;;;4959682;28;20035;-82
2022/07/08 07:27:04;;;;;;;12.20;2.38;;;17.80;80.10;;;;;;4959683;28;20046;-81
2022/07/08 07:29:30;;;;;;;10.88;3.10;;;17.90;80.30;;;;;;4943757;28;20449;-82
2022/07/08 07:31:55;;;;;;;9.73;2.60;;;18.00;80.50;;;;;;4975568;28;20046;-83
2022/07/08 07:34:21;;;;;;;8.48;2.35;;;18.00;80.70;;;;;;4959327;28;20043;-83
2022/07/08 07:36:47;;;;;;;11.40;2.50;;;18.00;80.80;;;;;;4943266;28;20146;-82
2022/07/08 07:39:12;;;;;;;5.13;2.10;;;18.10;79.90;;;;;;4943551;28;20090;-79
2022/07/08 07:41:38;;;;;;;10.70;2.72;;;18.10;79.40;;;;;;4975641;28;20483;-79
2022/07/08 07:44:05;;;;;;;9.27;2.67;;;18.10;79.50;;;;;;4959274;28;20133;-78
2022/07/08 07:46:30;;;;;;;5.88;2.45;;;18.20;79.80;;;;;;4975444;28;20083;-80
2022/07/08 07:48:56;;;;;;;7.25;2.30;;;18.20;79.60;;;;;;4943236;28;20074;-83
2022/07/08 07:51:23;;;;;;;8.80;2.10;;;18.40;78.80;;;;;;4959053;28;20116;-81
2022/07/08 07:53:48;;;;;;;9.88;2.10;;;18.40;78.70;;;;;;4943402;28;20051;-80
2022/07/08 07:56:14;;;;;;;10.68;2.42;;;18.40;78.20;;;;;;4959409;28;20505;-83
2022/07/08 07:58:40;;;;;;;7.18;2.25;;;18.50;78.10;;;;;;4975235;28;20505;-82
2022/07/08 08:01:06;;;;;;;8.65;2.55;;;18.50;78.40;;;;;;4974936;28;20119;-82
2022/07/08 08:03:32;;;;;;;7.07;2.17;;;18.60;78.30;;;;;;4958994;28;20454;-83
2022/07/08 08:05:58;;;;;;;6.63;2.33;;;18.60;78.00;;;;;;4975212;28;20471;-81
2022/07/08 08:08:24;;;;;;;11.07;3.35;;;18.70;77.70;;;;;;4991260;28;20403;-81
2022/07/08 08:10:51;;;;;;;9.65;2.45;;;18.60;77.70;;;;;;4942868;28;20049;-81
2022/07/08 08:13:18;;;;;;;10.90;2.50;;;18.70;77.90;;;;;;4943252;28;20053;-81
2022/07/08 08:15:44;;;;;;;9.38;2.35;;;18.80;77.70;;;;;;4942964;28;20096;-81
2022/07/08 08:18:10;;;;;;;6.90;2.42;;;18.80;77.60;;;;;;4958240;28;20094;-80
2022/07/08 08:20:35;;;;;;;7.90;2.53;;;18.80;77.60;;;;;;4942656;28;20093;-81
2022/07/08 08:23:01;;;;;;;8.38;2.40;;;18.90;76.90;;;;;;4958479;28;20130;-82
2022/07/08 08:25:27;;;;;;;6.75;2.20;;;18.90;76.80;;;;;;4931336;28;20049;-82
2022/07/08 08:27:53;;;;;;;9.68;2.45;;;19.00;76.30;;;;;;4963436;28;20391;-82
2022/07/08 08:30:19;;;;;;;4.53;1.60;;;19.00;75.80;;;;;;4961215;28;20074;-81
2022/07/08 08:32:45;;;;;;;7.07;1.95;;;19.10;75.50;;;;;;4962372;28;20090;-81
2022/07/08 08:35:10;;;;;;;5.53;1.42;;;19.10;75.40;;;;;;4930347;28;20039;-80
2022/07/08 08:37:36;;;;;;;5.88;1.70;;;19.20;75.20;;;;;;4932680;28;20093;-80
2022/07/08 08:40:09;;;;;;;5.05;1.50;;;19.30;74.20;;;;;;4927737;28;20047;-79
2022/07/08 08:42:35;;;;;;;5.22;2.00;;;19.30;73.00;;;;;;4959301;28;20810;-79
2022/07/08 08:45:03;;;;;;;7.78;1.90;;;19.30;73.30;;;;;;4964072;28;20117;-80
2022/07/08 08:47:33;;;;;;;3.90;1.55;;;19.40;73.60;;;;;;4943131;28;20472;-83
2022/07/08 08:50:53;;;;;;;4.43;1.42;;;19.40;72.40;;;;;;4963053;28;20098;-81
2022/07/08 08:52:51;;;;;;;4.22;1.55;;;19.40;72.20;;;;;;4963909;28;20397;-82
2022/07/08 08:55:31;;;;;;;4.40;1.20;;;19.60;72.20;;;;;;4952372;28;20047;-80
2022/07/08 08:57:58;;;;;;;8.50;2.03;;;19.70;71.40;;;;;;4957019;28;20097;-83
2022/07/08 09:00:25;;;;;;;5.95;2.60;;;19.80;71.90;;;;;;4979193;28;20049;-80
2022/07/08 09:02:53;;;;;;;5.60;2.10;;;19.90;71.70;;;;;;4945700;28;20085;-80
2022/07/08 09:05:20;;;;;;;5.85;1.55;;;19.90;70.30;;;;;;4960139;28;20503;-81
2022/07/08 09:07:46;;;;;;;5.55;1.80;;;20.00;69.20;;;;;;4961580;28;20054;-81
2022/07/08 09:10:15;;;;;;;6.10;1.70;;;20.10;69.20;;;;;;4948467;28;20038;-82
2022/07/08 09:12:58;;;;;;;5.93;2.08;;;20.20;69.40;;;;;;4957310;28;20055;-81
2022/07/08 09:15:36;;;;;;;4.65;1.63;;;20.30;69.10;;;;;;4957488;28;20082;-81
2022/07/08 09:18:13;;;;;;;5.57;1.98;;;20.40;69.20;;;;;;4969361;28;20105;-82
2022/07/08 09:20:53;;;;;;;3.65;1.63;;;20.50;69.20;;;;;;4953514;28;20780;-80
2022/07/08 09:23:28;;;;;;;5.15;1.67;;;20.60;68.10;;;;;;4970338;28;20530;-82
2022/07/08 09:25:56;;;;;;;3.90;1.45;;;20.70;67.50;;;;;;4954455;28;20078;-83
2022/07/08 09:28:37;;;;;;;3.85;1.30;;;20.70;65.50;;;;;;4971124;28;20038;-82
2022/07/08 09:31:07;;;;;;;4.65;1.67;;;20.70;65.70;;;;;;4955640;28;20081;-83
2022/07/08 09:33:34;;;;;;;3.70;1.50;;;20.70;66.30;;;;;;4940729;28;20509;-84
2022/07/08 09:36:01;;;;;;;5.32;1.50;;;20.80;67.00;;;;;;4957096;28;20129;-81
2022/07/08 09:38:29;;;;;;;6.25;2.08;;;20.90;66.80;;;;;;4941475;28;20043;-82
2022/07/08 09:41:02;;;;;;;5.60;1.90;;;21.00;65.90;;;;;;4957512;28;20047;-82
2022/07/08 09:43:28;;;;;;;6.47;1.92;;;21.00;66.90;;;;;;4989599;28;20047;-81
2022/07/08 09:45:54;;;;;;;7.90;2.05;;;21.00;66.50;;;;;;4957339;28;20077;-82
2022/07/08 09:48:24;;;;;;;3.17;1.52;;;21.20;66.40;;;;;;4941437;28;20078;-81
2022/07/08 09:50:49;;;;;;;3.75;1.60;;;21.30;66.10;;;;;;4941571;28;20390;-82
2022/07/08 09:53:36;;;;;;;4.80;2.10;;;21.30;66.10;;;;;;4957283;28;20053;-80
2022/07/08 09:56:03;;;;;;;5.55;2.22;;;21.20;66.90;;;;;;4957098;28;20042;-81
2022/07/08 09:58:30;;;;;;;5.65;2.05;;;21.10;66.80;;;;;;4989859;28;20073;-82
2022/07/08 10:00:57;;;;;;;7.97;2.35;;;21.10;67.50;;;;;;4957183;28;20581;-81
2022/07/08 10:03:24;;;;;;;7.07;2.70;;;21.10;67.90;;;;;;4957502;28;20061;-81
2022/07/08 10:05:50;;;;;;;6.47;2.35;;;21.10;67.90;;;;;;4957133;28;20050;-80
2022/07/08 10:08:18;;;;;;;8.45;2.47;;;21.10;68.70;;;;;;4973160;28;20043;-81
2022/07/08 10:10:46;;;;;;;6.88;3.15;;;21.00;69.00;;;;;;4989385;28;20039;-79
2022/07/08 10:13:14;;;;;;;7.75;2.80;;;21.00;69.90;;;;;;4989527;28;20479;-80
2022/07/08 10:15:40;;;;;;;8.35;2.95;;;21.00;69.80;;;;;;4989504;28;20043;-81
2022/07/08 10:18:16;;;;;;;7.38;2.90;;;21.00;70.70;;;;;;4972680;28;20066;-80
2022/07/08 10:20:47;;;;;;;8.70;3.13;;;21.00;70.80;;;;;;4956971;28;20039;-80
2022/07/08 10:23:48;;;;;;;8.27;2.95;;;21.00;70.50;;;;;;4972398;28;20097;-79
2022/07/08 10:26:19;;;;;;;9.35;2.80;;;21.10;70.70;;;;;;4967919;28;20058;-81
2022/07/08 10:28:45;;;;;;;6.45;2.67;;;21.10;70.90;;;;;;4972891;28;20054;-81
2022/07/08 10:31:22;;;;;;;4.95;2.42;;;21.20;70.40;;;;;;4956796;28;20043;-80
2022/07/08 10:33:48;;;;;;;6.63;3.03;;;21.20;70.40;;;;;;4989205;28;20174;-81
2022/07/08 10:36:22;;;;;;;10.20;3.38;;;21.10;70.70;;;;;;4957189;28;20422;-81
2022/07/08 10:38:48;;;;;;;8.45;3.33;;;21.10;70.80;;;;;;4957029;28;20038;-79
2022/07/08 10:41:22;;;;;;;10.25;2.80;;;21.10;70.90;;;;;;4972606;28;20042;-82
2022/07/08 10:43:55;;;;;;;9.68;3.72;;;21.00;71.30;;;;;;4956451;28;20049;-78
2022/07/08 10:46:24;;;;;;;7.95;3.45;;;20.90;71.20;;;;;;4990279;28;20046;-79
2022/07/08 10:48:54;;;;;;;9.13;3.15;;;20.90;71.90;;;;;;4992644;28;20470;-81
2022/07/08 10:51:19;;;;;;;7.57;2.95;;;20.80;72.10;;;;;;4976586;28;20041;-80
2022/07/08 10:53:55;;;;;;;6.20;3.13;;;20.80;72.20;;;;;;4976172;28;20134;-82
2022/07/08 10:56:59;;;;;;;7.72;2.85;;;20.80;72.90;;;;;;4976487;28;20042;-80
2022/07/08 10:59:32;;;;;;;8.20;2.75;;;20.80;72.80;;;;;;4960415;28;20120;-81
2022/07/08 11:02:07;;;;;;;10.00;3.65;;;20.70;72.90;;;;;;4959959;28;20051;-82
2022/07/08 11:04:38;;;;;;;11.35;3.95;;;20.90;73.10;;;;;;4976151;28;20523;-79
2022/07/08 11:07:26;;;;;;;8.55;3.83;;;20.80;73.20;;;;;;4975930;28;20043;-81
2022/07/08 11:10:13;;;;;;;8.90;3.22;;;20.80;74.00;;;;;;4976114;28;20035;-83
2022/07/08 11:12:40;;;;;;;8.77;3.72;;;20.90;74.00;;;;;;4975918;28;20088;-80
2022/07/08 11:15:17;;;;;;;11.05;3.20;;;20.90;73.50;;;;;;4976033;28;20400;-82
2022/07/08 11:17:43;;;;;;;12.82;4.60;;;21.00;73.50;;;;;;4934763;29;20105;-83
2022/07/08 11:20:14;;;;;;;11.90;3.53;;;21.20;73.50;;;;;;4955912;29;20051;-81
2022/07/08 11:22:42;;;;;;;11.27;4.25;;;21.20;73.70;;;;;;4955992;29;20047;-80
2022/07/08 11:25:18;;;;;;;8.35;3.45;;;21.40;72.80;;;;;;4940247;29;20075;-82
2022/07/08 11:27:44;;;;;;;14.88;4.13;;;21.40;72.80;;;;;;4956029;28;20559;-80
2022/07/08 11:30:15;;;;;;;15.80;4.43;;;21.40;73.40;;;;;;4955822;29;20038;-82
2022/07/08 11:32:42;;;;;;;9.85;4.10;;;21.40;73.30;;;;;;4955788;29;20090;-80
2022/07/08 11:35:09;;;;;;;12.10;4.30;;;21.40;72.70;;;;;;4955973;29;20182;-80
2022/07/08 11:37:44;;;;;;;14.10;4.28;;;21.40;73.20;;;;;;4955875;29;20097;-80
2022/07/08 11:40:12;;;;;;;9.15;3.72;;;21.40;73.10;;;;;;4939568;29;20043;-82
2022/07/08 11:42:39;;;;;;;13.38;4.05;;;21.40;73.00;;;;;;4955676;28;20040;-80
2022/07/08 11:45:06;;;;;;;8.15;3.47;;;21.50;73.10;;;;;;4955740;29;20035;-80
2022/07/08 11:47:32;;;;;;;12.95;3.65;;;21.70;72.70;;;;;;4971577;28;20047;-81
2022/07/08 11:49:58;;;;;;;8.95;4.57;;;21.90;72.20;;;;;;4955610;29;20039;-82
2022/07/08 11:52:27;;;;;;;10.50;3.45;;;22.00;71.50;;;;;;4939389;29;20039;-80
2022/07/08 11:54:54;;;;;;;13.38;4.05;;;22.20;70.90;;;;;;4955366;29;20047;-83
2022/07/08 11:57:19;;;;;;;8.90;3.60;;;22.40;70.10;;;;;;4954874;28;20106;-83
2022/07/08 11:59:47;;;;;;;9.52;4.20;;;22.40;70.50;;;;;;4955287;28;20448;-81
2022/07/08 12:02:15;;;;;;;8.55;3.45;;;22.40;70.50;;;;;;4955317;29;20130;-83
2022/07/08 12:04:45;;;;;;;10.60;3.67;;;22.50;69.60;;;;;;4955124;29;20098;-82
2022/07/08 12:07:28;;;;;;;8.35;4.10;;;22.40;70.10;;;;;;4955084;29;20042;-80
2022/07/08 12:09:59;;;;;;;9.43;3.65;;;22.40;70.60;;;;;;4939058;29;20045;-81
2022/07/08 12:12:27;;;;;;;10.90;3.53;;;22.40;70.50;;;;;;4955038;29;20059;-82
2022/07/08 12:14:53;;;;;;;10.68;3.97;;;22.30;70.40;;;;;;4955160;29;20070;-83
2022/07/08 12:17:27;;;;;;;9.38;3.40;;;22.40;70.90;;;;;;4960899;28;20077;-82
2022/07/08 12:19:57;;;;;;;11.20;4.00;;;22.40;70.70;;;;;;4958279;28;20106;-80
2022/07/08 12:22:46;;;;;;;8.18;3.42;;;22.70;70.40;;;;;;4973996;28;20097;-82
2022/07/08 12:25:13;;;;;;;6.95;3.25;;;22.90;70.00;;;;;;4974256;28;20039;-83
2022/07/08 12:27:38;;;;;;;8.07;3.22;;;23.10;68.30;;;;;;4958061;28;20338;-81
2022/07/08 12:30:06;;;;;;;8.25;3.33;;;23.10;67.90;;;;;;4974057;28;20054;-82
2022/07/08 12:32:42;;;;;;;8.52;2.83;;;23.10;68.30;;;;;;4990135;28;20515;-82
2022/07/08 12:35:10;;;;;;;11.20;3.05;;;23.40;68.70;;;;;;4957823;28;20039;-81
2022/07/08 12:37:37;;;;;;;8.43;3.38;;;23.50;67.30;;;;;;4974154;28;20038;-80
2022/07/08 12:40:17;;;;;;;8.98;3.78;;;23.60;66.30;;;;;;4942108;28;20097;-81
2022/07/08 12:42:59;;;;;;;10.57;3.38;;;23.50;67.20;;;;;;4957879;28;20086;-81
2022/07/08 12:45:28;;;;;;;10.98;3.00;;;23.60;67.40;;;;;;4990292;28;20050;-80
2022/07/08 12:47:53;;;;;;;12.43;3.60;;;23.80;66.40;;;;;;4957480;28;20558;-81